Impacts TAF Board
For situational awareness. Not to be used for flight planning purposes.
IDs:

KSLC - Salt Lake City Intl, UT, US

Issued at 2045 UTC 26 May 2019
Updated at 2057 UTC 26 May 2019
Potential Impact None Slight Moderate High
Time2054Z 26/21Z 26/22Z 26/23Z 27/00Z 27/01Z 27/02Z 27/03Z 27/04Z 27/05Z 27/06Z 27/07Z 27/08Z 27/09Z>>
Type OBS PRVL PRVL PRVL PRVL PRVL PRVL PRVL PRVL PRVL PRVL PRVL PRVL PRVL
VIS 10 >6 >6 >6 >6 >6 >6 >6 >6 >6 >6 >6 >6 >6
CIG -- -- -- -- -- -- -- 100 100 100 100 100 100 100
Cover SCT SCT SCT SCT SCT SCT SCT BKN BKN BKN BKN BKN BKN BKN
FltCat VFR VFR VFR VFR VFR VFR VFR VFR VFR VFR VFR VFR VFR VFR
WX -- -- -- -- -- -- -- -- -- -- -- -- -- --
WDir 180 180 180 180 180 180 180 160 160 160 160 160 160 160
WSpd 22 18 18 18 18 18 18 10 10 10 10 10 10 10
WGst 31 26 26 26 26 26 26 -- -- -- -- -- -- --
Raw TAF
KSLC 262045Z 2621/2724 18018G26KT P6SM SCT080
  FM270300 16010KT P6SM SCT070 BKN100
  FM271400 15009KT P6SM -SHRA SCT030 BKN050


Raw METAR
KSLC 262054Z 18022G31KT 10SM SCT120 24/M02 A2969 RMK AO2 PK WND 19031/2054 SLP012 VIRGA VC W TCU DSNT N T02441022 58020 VISNO NW RNWY
KSLC 261954Z 18017G25KT 10SM SCT120 24/M03 A2971 RMK AO2 SLP019 VIRGA VC W TCU DSNT N T02391033 VISNO NW RNWY
KSLC 261854Z 18015KT 10SM FEW120 FEW230 23/M03 A2974 RMK AO2 SLP029 TCU DSNT NW-N T02281033 VISNO NW RNWY
KSLC 261754Z 16016G21KT 10SM FEW120 SCT230 22/00 A2975 RMK AO2 SLP037 TCU DSNT NE AND SE AND SW AND NW T02170000 10217 20089 58012 VISNO NW RNWY

METAR Board
Radar Display
Forecast Discussion
For situational awareness. Not to be used for flight planning purposes.